Time;durP1;ratioP1;P1;durP2;ratioP2;P2;SDS_P1;SDS_P2;PMS_P1;PMS_P2;Temp;Humidity;BMP_temperature;BMP_pressure;BME280_temperature;BME280_humidity;BME280_pressure;Samples;Min_cycle;Max_cycle;Signal;HPM_P1;HPM_P2
2022/08/03 00:02:15;;;;;;;4.00;3.53;;;15.60;99.90;;;;;;5048802;28;20080;-61
2022/08/03 00:04:41;;;;;;;7.75;3.42;;;15.50;99.90;;;;;;5048508;28;20088;-62
2022/08/03 00:07:07;;;;;;;5.78;3.75;;;15.50;99.90;;;;;;5048288;28;20041;-65
2022/08/03 00:09:35;;;;;;;4.88;3.60;;;15.40;99.90;;;;;;5048732;28;20057;-62
2022/08/03 00:12:01;;;;;;;4.38;3.90;;;15.40;99.90;;;;;;5048456;28;20041;-59
2022/08/03 00:14:27;;;;;;;5.65;3.33;;;15.30;99.90;;;;;;5048882;28;20040;-63
2022/08/03 00:16:53;;;;;;;4.65;3.90;;;15.20;99.90;;;;;;5048789;28;20059;-64
2022/08/03 00:19:18;;;;;;;4.35;3.95;;;15.20;99.90;;;;;;5049670;28;20659;-61
2022/08/03 00:21:44;;;;;;;5.22;3.60;;;15.10;99.90;;;;;;5048539;28;20044;-62
2022/08/03 00:24:10;;;;;;;5.10;3.97;;;15.10;99.90;;;;;;5047315;28;20025;-62
2022/08/03 00:26:35;;;;;;;5.35;3.60;;;15.10;99.90;;;;;;5048816;28;20040;-61
2022/08/03 00:29:01;;;;;;;3.97;3.63;;;15.10;99.90;;;;;;5047763;28;20029;-61
2022/08/03 00:31:27;;;;;;;5.25;4.22;;;15.10;99.90;;;;;;5048999;28;20029;-62
2022/08/03 00:33:52;;;;;;;6.78;4.35;;;15.10;99.90;;;;;;5047678;28;20023;-61
2022/08/03 00:36:18;;;;;;;8.13;4.20;;;15.10;99.90;;;;;;5047807;28;20052;-62
2022/08/03 00:38:44;;;;;;;4.72;3.63;;;15.10;99.90;;;;;;5047738;28;20032;-62
2022/08/03 00:41:09;;;;;;;4.75;4.05;;;15.10;99.90;;;;;;5063768;28;20025;-62
2022/08/03 00:43:35;;;;;;;6.82;4.53;;;15.10;99.90;;;;;;5031341;28;20067;-61
2022/08/03 00:46:01;;;;;;;4.32;3.92;;;15.00;99.90;;;;;;5047072;28;20147;-61
2022/08/03 00:48:26;;;;;;;4.10;3.80;;;15.00;99.90;;;;;;5048005;28;20112;-61
2022/08/03 00:50:52;;;;;;;5.25;4.22;;;15.00;99.90;;;;;;5047849;28;20025;-61
2022/08/03 00:53:19;;;;;;;4.60;4.30;;;15.00;99.90;;;;;;5064108;28;20028;-61
2022/08/03 00:55:44;;;;;;;4.53;4.10;;;15.00;99.90;;;;;;5048323;28;20091;-62
2022/08/03 00:58:10;;;;;;;8.50;4.82;;;14.90;99.90;;;;;;5048258;28;20025;-62
2022/08/03 01:00:38;;;;;;;5.38;4.95;;;14.90;99.90;;;;;;5047814;28;20029;-62
2022/08/03 01:03:05;;;;;;;4.68;4.25;;;14.90;99.90;;;;;;5047902;28;20165;-61
2022/08/03 01:05:42;;;;;;;4.57;4.20;;;14.80;99.90;;;;;;5062357;28;20029;-61
2022/08/03 01:08:50;;;;;;;7.03;4.10;;;14.80;99.90;;;;;;5044352;28;20036;-61
2022/08/03 01:11:51;;;;;;;4.13;3.83;;;14.80;99.90;;;;;;4965630;28;20051;-61
2022/08/03 01:14:26;;;;;;;5.47;4.82;;;14.80;99.90;;;;;;4936401;28;20038;-62
2022/08/03 01:17:03;;;;;;;5.38;3.70;;;14.80;99.90;;;;;;5020476;28;20029;-61
2022/08/03 01:19:52;;;;;;;5.70;4.53;;;14.70;99.90;;;;;;5047931;28;20047;-61
2022/08/03 01:22:42;;;;;;;4.57;4.18;;;14.70;99.90;;;;;;5048654;28;20045;-61
2022/08/03 01:25:14;;;;;;;4.93;4.53;;;14.70;99.90;;;;;;5047325;28;20397;-59
2022/08/03 01:28:11;;;;;;;6.30;3.88;;;14.60;99.90;;;;;;5047883;28;20060;-61
2022/08/03 01:30:40;;;;;;;6.10;3.95;;;14.50;99.90;;;;;;5047023;28;20084;-61
2022/08/03 01:33:14;;;;;;;4.53;4.10;;;14.40;99.90;;;;;;5048147;28;20029;-61
2022/08/03 01:35:51;;;;;;;8.05;5.05;;;14.20;99.90;;;;;;5047202;28;20033;-60
2022/08/03 01:38:23;;;;;;;5.75;5.10;;;14.20;99.90;;;;;;5047066;28;20087;-62
2022/08/03 01:40:52;;;;;;;6.25;4.75;;;14.10;99.90;;;;;;5047445;28;20031;-62
2022/08/03 01:43:22;;;;;;;5.93;5.43;;;14.00;99.90;;;;;;5048117;28;20029;-62
2022/08/03 01:45:49;;;;;;;6.05;5.53;;;13.90;99.90;;;;;;5045997;28;20512;-62
2022/08/03 01:48:17;;;;;;;5.75;5.25;;;13.90;99.90;;;;;;5047156;28;20060;-62
2022/08/03 01:50:45;;;;;;;5.78;5.18;;;13.80;99.90;;;;;;5047204;28;20029;-62
2022/08/03 01:53:15;;;;;;;6.88;5.30;;;13.80;99.90;;;;;;5044232;28;20128;-61
2022/08/03 01:55:46;;;;;;;12.30;5.88;;;13.80;99.90;;;;;;5048446;28;20051;-61
2022/08/03 01:58:15;;;;;;;6.67;5.97;;;13.70;99.90;;;;;;5047590;28;20029;-62
2022/08/03 02:00:42;;;;;;;5.90;5.35;;;13.70;99.90;;;;;;5048854;28;20119;-61
2022/08/03 02:03:11;;;;;;;5.93;5.50;;;13.70;99.90;;;;;;5051155;28;20025;-61
2022/08/03 02:05:39;;;;;;;5.72;5.32;;;13.70;99.90;;;;;;5050516;28;20025;-61
2022/08/03 02:08:08;;;;;;;7.38;5.03;;;13.70;99.90;;;;;;5050279;28;20400;-61
2022/08/03 02:10:36;;;;;;;6.38;5.90;;;13.70;99.90;;;;;;5051593;28;20656;-61
2022/08/03 02:13:04;;;;;;;7.18;6.55;;;13.80;99.90;;;;;;5051585;28;20022;-61
2022/08/03 02:15:32;;;;;;;6.68;6.13;;;13.80;99.90;;;;;;5051169;28;20033;-62
2022/08/03 02:18:00;;;;;;;6.82;6.25;;;13.80;99.90;;;;;;5049316;28;20029;-61
2022/08/03 02:20:27;;;;;;;6.95;6.35;;;13.90;99.90;;;;;;5051063;28;20508;-62
2022/08/03 02:22:53;;;;;;;6.18;5.70;;;13.90;99.90;;;;;;5050718;28;20032;-62
2022/08/03 02:25:19;;;;;;;6.00;5.60;;;14.00;99.90;;;;;;5051765;28;20029;-61
2022/08/03 02:28:07;;;;;;;6.97;6.28;;;14.00;99.90;;;;;;5049026;28;20033;-61
2022/08/03 02:30:37;;;;;;;6.18;5.43;;;14.00;99.90;;;;;;5049363;28;20028;-61
2022/08/03 02:33:06;;;;;;;7.97;5.68;;;13.90;99.90;;;;;;5049754;28;20025;-62
2022/08/03 02:35:33;;;;;;;5.85;5.25;;;13.90;99.90;;;;;;5049031;28;20340;-61
2022/08/03 02:38:02;;;;;;;6.25;5.68;;;13.80;99.90;;;;;;5049345;28;20032;-61
2022/08/03 02:40:31;;;;;;;6.68;6.07;;;13.80;99.90;;;;;;5049876;28;20124;-61
2022/08/03 02:43:06;;;;;;;5.93;5.53;;;13.70;99.90;;;;;;5049469;28;20393;-62
2022/08/03 02:45:35;;;;;;;6.93;6.18;;;13.70;99.90;;;;;;5049547;28;20036;-61
2022/08/03 02:48:04;;;;;;;5.88;5.47;;;13.60;99.90;;;;;;5049701;28;20040;-61
2022/08/03 02:50:32;;;;;;;6.38;5.88;;;13.60;99.90;;;;;;5049589;28;20626;-61
2022/08/03 02:53:00;;;;;;;7.25;5.55;;;13.60;99.90;;;;;;5049133;28;20377;-61
2022/08/03 02:55:27;;;;;;;6.40;5.80;;;13.50;99.90;;;;;;5050339;28;20407;-61
2022/08/03 02:57:56;;;;;;;7.20;6.50;;;13.50;99.90;;;;;;5048029;28;20025;-61
2022/08/03 03:00:23;;;;;;;6.03;5.43;;;13.40;99.90;;;;;;5050229;28;20025;-61
2022/08/03 03:02:49;;;;;;;6.05;5.55;;;13.40;99.90;;;;;;5040491;28;20029;-61
2022/08/03 03:05:16;;;;;;;6.78;6.18;;;13.40;99.90;;;;;;5050748;28;20037;-61
2022/08/03 03:07:42;;;;;;;6.60;5.97;;;13.30;99.90;;;;;;5049740;28;20092;-61
2022/08/03 03:10:09;;;;;;;6.38;5.88;;;13.30;99.90;;;;;;5049923;28;20025;-61
2022/08/03 03:12:36;;;;;;;6.47;5.85;;;13.30;99.90;;;;;;5050217;28;20127;-62
2022/08/03 03:15:05;;;;;;;6.63;6.10;;;13.30;99.90;;;;;;5049372;28;20439;-60
2022/08/03 03:17:32;;;;;;;6.38;5.75;;;13.20;99.90;;;;;;5049425;28;20040;-61
2022/08/03 03:19:59;;;;;;;6.13;5.63;;;13.20;99.90;;;;;;5049279;28;20017;-62
2022/08/03 03:22:26;;;;;;;7.15;6.55;;;13.10;99.90;;;;;;5050662;28;20048;-61
2022/08/03 03:24:53;;;;;;;9.60;6.78;;;13.10;99.90;;;;;;5049040;28;20474;-64
2022/08/03 03:27:20;;;;;;;7.25;6.63;;;13.10;99.90;;;;;;5049506;28;20032;-63
2022/08/03 03:29:46;;;;;;;6.93;6.43;;;13.00;99.90;;;;;;5050299;28;20378;-63
2022/08/03 03:32:12;;;;;;;7.55;6.97;;;13.00;99.90;;;;;;5049265;28;20040;-64
2022/08/03 03:34:38;;;;;;;7.05;6.45;;;13.00;99.90;;;;;;5050558;28;20032;-64
2022/08/03 03:37:04;;;;;;;7.25;6.65;;;13.00;99.90;;;;;;5054169;28;20036;-61
2022/08/03 03:39:30;;;;;;;7.90;7.40;;;12.90;99.90;;;;;;5050682;28;20041;-61
2022/08/03 03:41:56;;;;;;;6.88;6.38;;;12.90;99.90;;;;;;5049410;28;20045;-64
2022/08/03 03:44:27;;;;;;;7.10;6.60;;;12.90;99.90;;;;;;5049639;28;20037;-62
2022/08/03 03:46:54;;;;;;;7.85;7.00;;;12.90;99.90;;;;;;5048949;28;20025;-61
2022/08/03 03:49:20;;;;;;;7.90;7.20;;;12.80;99.90;;;;;;5049366;28;20113;-61
2022/08/03 03:51:46;;;;;;;7.32;6.75;;;12.80;99.90;;;;;;5048670;28;20044;-61
2022/08/03 03:54:11;;;;;;;8.35;7.25;;;12.80;99.90;;;;;;5049103;28;20033;-61
2022/08/03 03:56:37;;;;;;;7.68;7.07;;;12.70;99.90;;;;;;5047847;28;20132;-61
2022/08/03 03:59:03;;;;;;;7.88;7.13;;;12.80;99.90;;;;;;5048947;28;20029;-61
2022/08/03 04:01:29;;;;;;;8.05;7.40;;;12.70;99.90;;;;;;5049006;28;20024;-62
2022/08/03 04:03:55;;;;;;;10.10;8.80;;;12.70;99.90;;;;;;5049368;28;20036;-65
2022/08/03 04:11:53;;;;;;;8.95;8.25;;;12.80;99.90;;;;;;5048446;28;20083;-62
2022/08/03 04:14:27;;;;;;;9.43;8.57;;;12.80;99.90;;;;;;5063688;28;20055;-61
2022/08/03 04:16:57;;;;;;;8.88;8.27;;;12.80;99.90;;;;;;5047400;28;20492;-64
2022/08/03 04:19:37;;;;;;;8.43;7.72;;;12.90;99.90;;;;;;5048693;28;20032;-61
2022/08/03 04:22:06;;;;;;;9.13;8.43;;;12.90;99.90;;;;;;5048199;28;20025;-64
2022/08/03 04:24:41;;;;;;;8.52;7.90;;;12.90;99.90;;;;;;5046820;28;20017;-61
2022/08/03 04:27:10;;;;;;;8.70;8.00;;;13.00;99.90;;;;;;5048696;28;20017;-64
2022/08/03 04:29:40;;;;;;;8.85;7.65;;;13.00;99.90;;;;;;5030422;28;20384;-62
2022/08/03 04:32:07;;;;;;;8.48;7.78;;;13.10;99.90;;;;;;5048856;28;20032;-61
2022/08/03 04:34:34;;;;;;;8.40;7.70;;;13.10;99.90;;;;;;5049220;28;20155;-62
2022/08/03 04:37:04;;;;;;;9.07;8.07;;;13.10;99.90;;;;;;5049020;28;20043;-62
2022/08/03 04:39:31;;;;;;;8.15;7.55;;;13.10;99.90;;;;;;5048843;28;20033;-64
2022/08/03 04:42:03;;;;;;;7.97;7.38;;;13.10;99.90;;;;;;5048745;28;20109;-61
2022/08/03 04:44:34;;;;;;;7.78;7.15;;;13.20;99.90;;;;;;5048403;28;20021;-65
2022/08/03 04:47:00;;;;;;;8.40;7.60;;;13.20;99.90;;;;;;5047625;28;20376;-61
2022/08/03 04:49:27;;;;;;;8.15;7.53;;;13.30;99.90;;;;;;5049216;28;20380;-61
2022/08/03 04:51:53;;;;;;;7.80;7.20;;;13.40;99.90;;;;;;5047377;28;20091;-63
2022/08/03 04:54:19;;;;;;;7.80;6.35;;;13.50;99.90;;;;;;5048127;28;20039;-64
2022/08/03 04:56:45;;;;;;;7.63;7.03;;;13.60;99.90;;;;;;5047780;28;20397;-62
2022/08/03 04:59:11;;;;;;;8.13;7.53;;;13.70;99.90;;;;;;5048658;28;20032;-62
2022/08/03 05:01:39;;;;;;;7.88;7.22;;;13.80;99.90;;;;;;5048167;28;20025;-61
2022/08/03 05:04:04;;;;;;;7.45;6.95;;;13.90;99.90;;;;;;5048256;28;20396;-61
2022/08/03 05:06:30;;;;;;;8.25;7.53;;;14.00;99.90;;;;;;5046630;28;20030;-64
2022/08/03 05:08:56;;;;;;;7.70;7.10;;;14.20;99.90;;;;;;5047575;28;20021;-63
2022/08/03 05:11:22;;;;;;;7.00;6.40;;;14.40;99.90;;;;;;5048675;28;20124;-65
2022/08/03 05:13:50;;;;;;;10.88;5.57;;;14.70;99.90;;;;;;5047906;28;20075;-63
2022/08/03 05:16:16;;;;;;;6.32;5.72;;;15.30;99.90;;;;;;5048896;28;20025;-60
2022/08/03 05:18:42;;;;;;;5.20;4.80;;;16.40;99.90;;;;;;5048179;28;20397;-60
2022/08/03 05:21:09;;;;;;;6.50;4.20;;;17.90;99.90;;;;;;5047641;28;20045;-64
2022/08/03 05:23:35;;;;;;;4.03;3.72;;;19.60;99.90;;;;;;5061722;28;20076;-60
2022/08/03 05:26:01;;;;;;;4.07;3.78;;;21.10;99.90;;;;;;5047802;28;20469;-61
2022/08/03 05:28:26;;;;;;;3.88;3.53;;;22.60;99.90;;;;;;5047171;28;20050;-63
2022/08/03 05:30:52;;;;;;;3.88;3.58;;;23.90;99.90;;;;;;5047343;28;20104;-60
2022/08/03 05:33:18;;;;;;;4.13;3.83;;;25.00;99.70;;;;;;5048449;28;20041;-60
2022/08/03 05:35:43;;;;;;;4.78;3.25;;;26.10;94.00;;;;;;5049338;28;20029;-60
2022/08/03 05:38:09;;;;;;;3.97;3.58;;;27.20;81.90;;;;;;5052662;28;20552;-63
2022/08/03 05:40:34;;;;;;;6.35;3.28;;;28.00;69.30;;;;;;5052049;28;20108;-62
2022/08/03 05:43:00;;;;;;;3.22;3.03;;;28.80;64.80;;;;;;5051943;28;20400;-62
2022/08/03 05:45:26;;;;;;;8.35;3.28;;;29.00;61.60;;;;;;5051965;28;20048;-61
2022/08/03 05:47:51;;;;;;;3.20;2.90;;;29.30;59.60;;;;;;5051177;28;20021;-61
2022/08/03 05:50:19;;;;;;;3.33;3.03;;;30.20;56.40;;;;;;5051788;28;20124;-61
2022/08/03 05:52:45;;;;;;;4.20;2.80;;;30.40;55.60;;;;;;5066496;28;20051;-61
2022/08/03 05:55:12;;;;;;;3.28;3.00;;;30.30;55.30;;;;;;5051094;28;20037;-63
2022/08/03 05:57:38;;;;;;;3.70;3.40;;;30.10;56.20;;;;;;5050536;28;20025;-61
2022/08/03 06:00:07;;;;;;;3.67;2.88;;;30.60;56.10;;;;;;5049653;28;20036;-61
2022/08/03 06:02:33;;;;;;;2.92;2.72;;;31.10;54.50;;;;;;5051809;28;20032;-65
2022/08/03 06:05:00;;;;;;;5.15;2.42;;;31.10;53.20;;;;;;5050964;28;20041;-62
2022/08/03 06:07:27;;;;;;;2.70;2.50;;;31.70;51.90;;;;;;5051166;28;20131;-62
2022/08/03 06:09:56;;;;;;;2.45;2.10;;;32.00;51.00;;;;;;5049682;28;20472;-61
2022/08/03 06:12:22;;;;;;;3.17;2.38;;;32.50;50.80;;;;;;5050743;28;20049;-62
2022/08/03 06:14:47;;;;;;;3.30;2.75;;;32.90;50.40;;;;;;5050164;28;20037;-65
2022/08/03 06:17:13;;;;;;;3.28;2.38;;;33.20;49.60;;;;;;5051178;28;20128;-62
2022/08/03 06:19:39;;;;;;;2.78;2.50;;;33.50;48.20;;;;;;5051083;28;20104;-63
2022/08/03 06:22:04;;;;;;;3.17;2.28;;;33.20;49.40;;;;;;5051309;28;20067;-63
2022/08/03 06:24:30;;;;;;;2.63;2.30;;;33.80;48.40;;;;;;5049629;28;20484;-62
2022/08/03 06:26:56;;;;;;;4.22;2.35;;;34.40;47.70;;;;;;5049424;28;20396;-62
2022/08/03 06:29:22;;;;;;;2.97;2.33;;;35.00;47.20;;;;;;5051287;28;20033;-65
2022/08/03 06:31:47;;;;;;;4.25;2.10;;;35.20;45.10;;;;;;5047551;28;20543;-63
2022/08/03 06:34:13;;;;;;;1.90;1.80;;;35.20;45.30;;;;;;5051461;28;20096;-63
2022/08/03 06:36:38;;;;;;;4.15;1.85;;;35.00;45.10;;;;;;5049730;28;20025;-62
2022/08/03 06:39:05;;;;;;;3.83;1.63;;;35.50;45.20;;;;;;5051363;28;20025;-62
2022/08/03 06:41:33;;;;;;;2.78;2.13;;;36.00;44.80;;;;;;5047337;28;20516;-66
2022/08/03 06:43:59;;;;;;;1.98;1.88;;;35.90;43.00;;;;;;5051082;28;20025;-62
2022/08/03 06:46:25;;;;;;;4.70;1.88;;;36.00;43.00;;;;;;5049137;28;20107;-62
2022/08/03 06:48:51;;;;;;;1.90;1.73;;;36.00;42.40;;;;;;5049985;28;20148;-62
2022/08/03 06:51:16;;;;;;;1.98;1.60;;;36.10;43.40;;;;;;5050580;28;20504;-64
2022/08/03 06:53:42;;;;;;;1.60;1.50;;;35.90;41.50;;;;;;5050341;28;20461;-62
2022/08/03 06:56:08;;;;;;;1.73;1.60;;;35.70;42.30;;;;;;5050063;28;20355;-64
2022/08/03 06:58:34;;;;;;;2.80;2.15;;;34.70;43.30;;;;;;5048386;28;20079;-63
2022/08/03 07:01:00;;;;;;;2.10;1.70;;;35.20;44.40;;;;;;5049675;28;20033;-62
2022/08/03 07:03:25;;;;;;;2.38;1.80;;;35.70;43.30;;;;;;5048981;28;20044;-62
2022/08/03 07:05:51;;;;;;;1.92;1.83;;;35.70;42.90;;;;;;5049331;28;20079;-64
2022/08/03 07:08:17;;;;;;;2.05;1.65;;;36.00;44.30;;;;;;5049991;28;20043;-63
2022/08/03 07:10:44;;;;;;;2.70;1.60;;;37.00;43.40;;;;;;5050287;28;20427;-62
2022/08/03 07:13:10;;;;;;;1.40;1.30;;;37.20;41.10;;;;;;5048383;28;20084;-64
2022/08/03 07:15:36;;;;;;;2.13;1.40;;;37.30;42.40;;;;;;5048892;28;20036;-62
2022/08/03 07:18:02;;;;;;;3.72;1.60;;;36.70;42.00;;;;;;5049635;28;20037;-62
2022/08/03 07:20:28;;;;;;;1.40;1.23;;;37.00;42.70;;;;;;5049771;28;20032;-62
2022/08/03 07:22:53;;;;;;;3.10;1.23;;;37.60;42.10;;;;;;5049494;28;20457;-62
2022/08/03 07:25:19;;;;;;;1.73;1.27;;;37.70;40.40;;;;;;5049509;28;20048;-64
2022/08/03 07:27:46;;;;;;;1.40;1.30;;;37.30;41.80;;;;;;5048917;28;20029;-62
2022/08/03 07:30:13;;;;;;;2.17;1.30;;;37.60;41.70;;;;;;5047988;28;20049;-62
2022/08/03 07:32:39;;;;;;;1.40;1.30;;;38.20;41.10;;;;;;5047018;28;20080;-63
2022/08/03 07:35:06;;;;;;;1.90;1.20;;;38.40;42.40;;;;;;5050240;28;20025;-62
2022/08/03 07:37:32;;;;;;;1.50;1.08;;;38.60;40.20;;;;;;5049654;28;20021;-64
2022/08/03 07:39:59;;;;;;;1.20;1.10;;;38.50;40.60;;;;;;5048897;28;20036;-63
2022/08/03 07:42:26;;;;;;;2.65;1.10;;;38.80;40.60;;;;;;5049651;28;20025;-63
2022/08/03 07:44:52;;;;;;;2.55;1.10;;;39.40;40.60;;;;;;5048945;28;20067;-63
2022/08/03 07:47:19;;;;;;;1.88;1.05;;;37.90;40.10;;;;;;5047583;28;20423;-66
2022/08/03 07:49:44;;;;;;;1.50;1.30;;;38.00;40.70;;;;;;5049423;28;20067;-62
2022/08/03 07:54:54;;;;;;;2.20;1.40;;;37.50;40.90;;;;;;5046177;28;20035;-62
2022/08/03 07:57:20;;;;;;;4.15;1.45;;;36.80;42.20;;;;;;5048930;28;20033;-62
2022/08/03 07:59:46;;;;;;;1.60;1.50;;;37.10;42.60;;;;;;5047106;28;20055;-65
2022/08/03 08:02:13;;;;;;;1.98;1.10;;;38.40;40.80;;;;;;5049268;28;20052;-66
2022/08/03 08:04:38;;;;;;;1.42;1.27;;;39.30;40.70;;;;;;5049686;28;20024;-63
2022/08/03 08:07:04;;;;;;;5.60;1.67;;;40.20;38.10;;;;;;5047379;28;20025;-63
2022/08/03 08:09:30;;;;;;;2.75;1.10;;;40.80;37.90;;;;;;5047079;28;20040;-63
2022/08/03 08:11:55;;;;;;;1.30;1.20;;;40.60;37.30;;;;;;5049314;28;20121;-63
2022/08/03 08:14:21;;;;;;;1.60;1.17;;;40.70;38.40;;;;;;5048183;28;20408;-63
2022/08/03 08:16:48;;;;;;;2.92;1.10;;;41.00;37.10;;;;;;5047721;28;20021;-62
2022/08/03 08:19:15;;;;;;;1.90;1.13;;;41.50;37.90;;;;;;5049459;28;20041;-63
2022/08/03 08:21:42;;;;;;;1.55;1.20;;;42.20;36.60;;;;;;5048944;28;20076;-63
2022/08/03 08:24:08;;;;;;;2.03;1.05;;;42.50;35.20;;;;;;5048549;28;20021;-63
2022/08/03 08:26:34;;;;;;;2.70;1.05;;;42.10;34.40;;;;;;5047718;28;20436;-65
2022/08/03 08:29:00;;;;;;;2.63;1.05;;;42.40;34.90;;;;;;5061469;28;20060;-64
2022/08/03 08:31:25;;;;;;;1.77;0.95;;;41.40;34.90;;;;;;5049290;28;20028;-62
2022/08/03 08:33:51;;;;;;;1.83;0.90;;;40.70;35.90;;;;;;5047913;28;20032;-63
2022/08/03 08:36:17;;;;;;;3.63;1.00;;;40.50;36.40;;;;;;5045098;28;20033;-65
2022/08/03 08:38:43;;;;;;;1.08;1.00;;;39.70;38.10;;;;;;5048534;28;20104;-65
2022/08/03 08:41:10;;;;;;;2.60;0.88;;;39.40;37.30;;;;;;5047827;28;20021;-64
2022/08/03 08:43:36;;;;;;;1.00;0.90;;;39.60;37.30;;;;;;5049326;28;20091;-62
2022/08/03 08:46:02;;;;;;;0.80;0.80;;;40.70;36.70;;;;;;5047588;28;20025;-63
2022/08/03 08:48:29;;;;;;;0.80;0.80;;;41.00;36.10;;;;;;5048510;28;20025;-62
2022/08/03 08:50:56;;;;;;;1.10;0.90;;;42.30;35.50;;;;;;5030111;28;20456;-67
2022/08/03 08:53:26;;;;;;;1.10;1.00;;;42.40;33.80;;;;;;5046879;28;20049;-62
2022/08/03 08:55:56;;;;;;;1.73;1.10;;;41.80;34.40;;;;;;5047994;28;20025;-62
2022/08/03 08:58:22;;;;;;;2.10;1.10;;;41.70;34.60;;;;;;5046797;28;20180;-63
2022/08/03 09:00:49;;;;;;;2.25;1.05;;;42.10;34.60;;;;;;5048349;28;20030;-63
2022/08/03 09:03:16;;;;;;;0.98;0.88;;;42.70;34.80;;;;;;5048292;28;20030;-63
2022/08/03 09:05:42;;;;;;;1.10;0.90;;;44.40;33.10;;;;;;5048510;28;20377;-63
2022/08/03 09:08:08;;;;;;;1.58;0.95;;;45.20;31.10;;;;;;5046723;28;20091;-63
2022/08/03 09:10:34;;;;;;;1.27;0.80;;;45.20;30.40;;;;;;5050747;28;20400;-63
2022/08/03 09:13:02;;;;;;;1.17;0.95;;;45.00;29.40;;;;;;5051653;28;20034;-63
2022/08/03 09:15:30;;;;;;;2.35;0.90;;;45.00;30.20;;;;;;5051214;28;20025;-63
2022/08/03 09:17:59;;;;;;;1.15;0.77;;;45.30;29.60;;;;;;5052151;28;20056;-63
2022/08/03 09:20:26;;;;;;;0.55;0.55;;;43.70;29.50;;;;;;5051741;28;20112;-64
2022/08/03 09:22:58;;;;;;;2.05;0.70;;;43.30;30.90;;;;;;5052136;28;20017;-64
2022/08/03 09:25:28;;;;;;;0.82;0.60;;;42.60;30.30;;;;;;5049247;28;20060;-66
2022/08/03 09:27:54;;;;;;;6.18;1.08;;;41.60;30.80;;;;;;5051908;28;20029;-62
2022/08/03 09:30:20;;;;;;;2.65;0.90;;;41.70;32.70;;;;;;5051563;28;20047;-62
2022/08/03 09:32:46;;;;;;;1.50;0.80;;;42.30;32.90;;;;;;5051579;28;20031;-62
2022/08/03 09:35:13;;;;;;;0.80;0.80;;;42.80;32.60;;;;;;5052128;28;20087;-64
2022/08/03 09:37:39;;;;;;;0.93;0.80;;;43.10;32.10;;;;;;5052610;28;20108;-63
2022/08/03 09:40:06;;;;;;;1.33;0.95;;;42.90;30.90;;;;;;5051531;28;20091;-63
2022/08/03 09:42:37;;;;;;;1.80;1.08;;;43.00;31.10;;;;;;5051310;28;20021;-63
2022/08/03 09:45:03;;;;;;;1.60;0.90;;;42.80;31.70;;;;;;5052020;28;20036;-64
2022/08/03 09:47:37;;;;;;;0.90;0.90;;;42.70;31.70;;;;;;5051759;28;20084;-62
2022/08/03 09:50:06;;;;;;;1.50;0.80;;;42.90;31.40;;;;;;5049992;28;20032;-63
2022/08/03 09:52:31;;;;;;;1.08;0.98;;;42.40;32.70;;;;;;5052245;28;20033;-62
2022/08/03 09:54:58;;;;;;;0.90;0.90;;;42.30;32.20;;;;;;5050563;28;20060;-63
2022/08/03 09:57:26;;;;;;;3.13;0.90;;;41.90;32.80;;;;;;5051413;28;20025;-63
2022/08/03 09:59:57;;;;;;;2.58;1.00;;;41.60;32.30;;;;;;5050183;28;20512;-63
2022/08/03 10:02:26;;;;;;;1.67;0.90;;;41.40;32.70;;;;;;5051693;28;20029;-62
2022/08/03 10:04:53;;;;;;;;;;;40.90;32.90;;;;;;5051212;28;20099;-62
2022/08/03 10:07:23;;;;;;;2.55;0.80;;;40.50;34.10;;;;;;5049727;28;19912;-63
2022/08/03 10:10:00;;;;;;;1.98;0.80;;;40.20;34.40;;;;;;5049979;28;20053;-65
2022/08/03 10:12:26;;;;;;;4.22;0.90;;;40.80;33.50;;;;;;5053085;28;20087;-63
2022/08/03 10:14:53;;;;;;;1.63;0.80;;;41.00;33.40;;;;;;5050281;28;20048;-64
2022/08/03 10:17:20;;;;;;;8.48;1.10;;;41.10;34.50;;;;;;5050252;28;20029;-63
2022/08/03 10:19:46;;;;;;;2.17;0.70;;;41.90;33.30;;;;;;5052204;28;20024;-62
2022/08/03 10:22:13;;;;;;;1.15;1.00;;;42.50;32.40;;;;;;5050755;28;20029;-63
2022/08/03 10:24:47;;;;;;;1.60;0.80;;;42.30;29.90;;;;;;5050933;28;20076;-63
2022/08/03 10:27:14;;;;;;;3.00;0.75;;;41.90;30.50;;;;;;5049221;28;20060;-63
2022/08/03 10:29:44;;;;;;;1.15;0.63;;;42.80;30.30;;;;;;5048589;28;20028;-63
2022/08/03 10:32:18;;;;;;;1.35;0.80;;;43.70;30.10;;;;;;5051190;28;20080;-63
2022/08/03 10:34:45;;;;;;;2.20;0.82;;;44.90;29.60;;;;;;5051804;28;20025;-66
2022/08/03 10:37:13;;;;;;;1.45;0.80;;;45.60;29.00;;;;;;5050681;28;20048;-62
2022/08/03 10:39:52;;;;;;;0.70;0.70;;;46.50;28.10;;;;;;5052440;28;20172;-62
2022/08/03 10:42:25;;;;;;;1.20;0.87;;;47.20;27.80;;;;;;5049549;28;20655;-63
2022/08/03 10:45:04;;;;;;;0.93;0.77;;;47.70;26.80;;;;;;5051081;28;20064;-62
2022/08/03 10:47:31;;;;;;;0.60;0.60;;;46.50;26.80;;;;;;5049449;28;20025;-66
2022/08/03 10:49:58;;;;;;;0.70;0.70;;;46.90;27.40;;;;;;5050038;28;20047;-64
2022/08/03 10:52:24;;;;;;;1.20;0.60;;;47.10;27.30;;;;;;5051548;28;20104;-65
2022/08/03 10:57:55;;;;;;;1.15;0.50;;;46.60;26.90;;;;;;5050649;28;20064;-62
2022/08/03 11:00:25;;;;;;;1.20;0.60;;;46.30;27.20;;;;;;5049125;28;20035;-63
2022/08/03 11:03:05;;;;;;;0.90;0.77;;;45.30;27.40;;;;;;5049970;28;20049;-65
2022/08/03 11:05:40;;;;;;;1.13;0.90;;;44.90;28.40;;;;;;5048583;28;20033;-63
2022/08/03 11:08:23;;;;;;;1.13;0.80;;;45.10;28.30;;;;;;5048908;28;20108;-63
2022/08/03 11:10:53;;;;;;;1.20;0.70;;;45.50;28.00;;;;;;5049867;28;20111;-62
2022/08/03 11:13:20;;;;;;;;;;;45.70;27.30;;;;;;5050863;28;20017;-65
2022/08/03 11:15:47;;;;;;;1.40;0.70;;;45.70;27.50;;;;;;5048726;28;20399;-63
2022/08/03 11:18:14;;;;;;;6.63;0.95;;;45.60;27.40;;;;;;5048908;28;20033;-63
2022/08/03 11:20:59;;;;;;;0.73;0.70;;;43.70;26.70;;;;;;5050585;28;20048;-62
2022/08/03 11:23:47;;;;;;;0.80;0.60;;;43.50;28.10;;;;;;5049432;28;20033;-65
2022/08/03 11:26:14;;;;;;;1.45;0.65;;;43.00;28.40;;;;;;5049048;28;20041;-63
2022/08/03 11:28:42;;;;;;;2.10;0.95;;;43.20;29.20;;;;;;5049811;28;20025;-62
2022/08/03 11:31:25;;;;;;;3.35;1.05;;;43.40;28.20;;;;;;5049028;28;20044;-62
2022/08/03 11:34:08;;;;;;;1.10;1.00;;;42.80;29.60;;;;;;5049219;28;20017;-65
2022/08/03 11:37:11;;;;;;;0.75;0.75;;;43.00;29.40;;;;;;5048747;28;20116;-62
2022/08/03 11:39:45;;;;;;;0.80;0.80;;;41.80;27.80;;;;;;5051194;28;20256;-62
2022/08/03 11:42:22;;;;;;;0.90;0.90;;;41.00;28.40;;;;;;5048175;28;20076;-62
2022/08/03 11:44:53;;;;;;;1.67;0.80;;;40.50;29.00;;;;;;5049022;28;20025;-62
2022/08/03 11:47:23;;;;;;;2.05;0.80;;;40.50;29.60;;;;;;5047215;28;20404;-62
2022/08/03 11:49:49;;;;;;;;;;;40.80;29.80;;;;;;5049937;28;20019;-62
2022/08/03 11:52:18;;;;;;;1.00;0.90;;;41.30;28.90;;;;;;5048883;28;19999;-65
2022/08/03 11:54:44;;;;;;;2.20;0.90;;;41.30;28.80;;;;;;5049737;28;20023;-64
2022/08/03 11:57:10;;;;;;;2.45;1.10;;;41.00;29.40;;;;;;5049086;28;20025;-63
2022/08/03 11:59:37;;;;;;;1.60;0.77;;;40.50;28.30;;;;;;5048004;28;20030;-63
2022/08/03 12:02:11;;;;;;;2.20;1.00;;;40.30;30.00;;;;;;5049332;28;20056;-62
2022/08/03 12:05:01;;;;;;;1.05;0.85;;;39.50;29.90;;;;;;5049816;28;20028;-62
2022/08/03 12:07:29;;;;;;;1.00;0.90;;;38.90;30.50;;;;;;5048249;28;20036;-64
2022/08/03 12:10:10;;;;;;;2.40;1.05;;;38.30;32.10;;;;;;5049107;28;20029;-63
2022/08/03 12:12:37;;;;;;;1.83;1.10;;;37.50;32.40;;;;;;5049122;28;20037;-61
2022/08/03 12:15:04;;;;;;;1.05;1.00;;;36.70;33.30;;;;;;5049111;28;20515;-62
2022/08/03 12:17:33;;;;;;;4.10;1.00;;;36.30;34.20;;;;;;5048432;28;20496;-61
2022/08/03 12:19:59;;;;;;;1.08;0.90;;;36.60;34.70;;;;;;5049034;28;20033;-63
2022/08/03 12:22:36;;;;;;;1.17;1.08;;;36.70;33.60;;;;;;5049029;28;20431;-61
2022/08/03 12:25:03;;;;;;;3.03;0.85;;;36.90;34.20;;;;;;5049031;28;20182;-62
2022/08/03 12:27:29;;;;;;;1.85;0.80;;;37.10;33.70;;;;;;5048302;28;20029;-62
2022/08/03 12:29:56;;;;;;;1.25;0.95;;;37.60;32.80;;;;;;5049156;28;20084;-62
2022/08/03 12:32:23;;;;;;;2.33;1.13;;;38.00;32.30;;;;;;5048941;28;20041;-65
2022/08/03 12:34:49;;;;;;;2.30;1.00;;;37.60;31.80;;;;;;5047293;28;20033;-66
2022/08/03 12:37:21;;;;;;;1.85;0.90;;;37.50;32.30;;;;;;5049247;28;20508;-63
2022/08/03 12:39:51;;;;;;;1.70;1.00;;;38.00;33.00;;;;;;5048225;28;20025;-62
2022/08/03 12:42:17;;;;;;;0.88;0.88;;;38.50;32.90;;;;;;5047554;28;20112;-62
2022/08/03 12:44:44;;;;;;;1.45;1.10;;;39.00;32.10;;;;;;5048157;28;20159;-62
2022/08/03 12:47:11;;;;;;;1.75;0.90;;;39.30;31.90;;;;;;5048507;28;20072;-63
2022/08/03 12:49:52;;;;;;;1.42;1.00;;;39.70;31.30;;;;;;5048490;28;20025;-62
2022/08/03 12:52:20;;;;;;;1.35;0.88;;;39.80;30.70;;;;;;5047637;28;20045;-63
2022/08/03 12:54:59;;;;;;;1.17;0.88;;;39.40;30.70;;;;;;5047407;28;20045;-62
2022/08/03 12:57:38;;;;;;;1.77;0.90;;;39.00;31.50;;;;;;5047410;28;20392;-66
2022/08/03 13:00:12;;;;;;;1.07;0.93;;;38.70;31.60;;;;;;5048126;28;20029;-62
2022/08/03 13:02:37;;;;;;;1.85;1.10;;;38.90;32.10;;;;;;5047481;28;20029;-62
2022/08/03 13:05:10;;;;;;;1.27;0.90;;;39.20;31.60;;;;;;5046792;28;20025;-64
2022/08/03 13:07:43;;;;;;;2.85;0.90;;;39.20;32.70;;;;;;5047604;28;20033;-61